sensor_id;sensor_type;location;lat;lon;timestamp;pressure;altitude;pressure_sealevel;temperature;humidity
60307;BME280;46155;52.364;6.580;2023-03-04T04:02:10;102174.19;;;5.40;92.45
60307;BME280;46155;52.364;6.580;2023-03-04T04:04:36;102173.09;;;5.38;92.31
60307;BME280;46155;52.364;6.580;2023-03-04T04:07:01;102175.38;;;5.35;92.20
60307;BME280;46155;52.364;6.580;2023-03-04T04:09:27;102170.75;;;5.24;92.95
60307;BME280;46155;52.364;6.580;2023-03-04T04:11:52;102173.22;;;5.31;92.60
60307;BME280;46155;52.364;6.580;2023-03-04T04:14:17;102168.00;;;5.22;92.94
60307;BME280;46155;52.364;6.580;2023-03-04T04:16:43;102166.16;;;5.30;92.29
60307;BME280;46155;52.364;6.580;2023-03-04T04:19:14;102170.75;;;5.24;92.85
60307;BME280;46155;52.364;6.580;2023-03-04T04:21:40;102172.34;;;5.39;92.13
60307;BME280;46155;52.364;6.580;2023-03-04T04:24:05;102164.34;;;5.29;92.69
60307;BME280;46155;52.364;6.580;2023-03-04T04:26:31;102164.91;;;5.17;93.67
60307;BME280;46155;52.364;6.580;2023-03-04T04:28:56;102161.97;;;5.14;93.90
60307;BME280;46155;52.364;6.580;2023-03-04T04:31:21;102168.28;;;5.16;94.01
60307;BME280;46155;52.364;6.580;2023-03-04T04:33:47;102167.69;;;5.19;94.08
60307;BME280;46155;52.364;6.580;2023-03-04T04:36:14;102167.97;;;5.13;93.76
60307;BME280;46155;52.364;6.580;2023-03-04T04:38:44;102168.91;;;5.23;93.64
60307;BME280;46155;52.364;6.580;2023-03-04T04:41:22;102166.41;;;5.15;93.71
60307;BME280;46155;52.364;6.580;2023-03-04T04:43:48;102166.72;;;5.18;94.10
60307;BME280;46155;52.364;6.580;2023-03-04T04:46:14;102168.28;;;5.16;94.30
60307;BME280;46155;52.364;6.580;2023-03-04T04:48:40;102171.31;;;5.12;94.66
60307;BME280;46155;52.364;6.580;2023-03-04T04:51:05;102171.38;;;5.30;93.49
60307;BME280;46155;52.364;6.580;2023-03-04T04:53:30;102162.78;;;5.22;93.83
60307;BME280;46155;52.364;6.580;2023-03-04T04:55:56;102162.16;;;5.16;94.13
60307;BME280;46155;52.364;6.580;2023-03-04T04:58:21;102166.28;;;5.23;93.75
60307;BME280;46155;52.364;6.580;2023-03-04T05:00:47;102162.31;;;5.17;93.89
60307;BME280;46155;52.364;6.580;2023-03-04T05:03:12;102168.28;;;5.16;94.43
60307;BME280;46155;52.364;6.580;2023-03-04T05:05:37;102174.09;;;5.23;93.87
60307;BME280;46155;52.364;6.580;2023-03-04T05:08:03;102171.34;;;5.21;94.34
60307;BME280;46155;52.364;6.580;2023-03-04T05:10:28;102170.88;;;5.16;95.19
60307;BME280;46155;52.364;6.580;2023-03-04T05:12:53;102164.56;;;5.14;95.81
60307;BME280;46155;52.364;6.580;2023-03-04T05:15:19;102161.22;;;5.15;95.73
60307;BME280;46155;52.364;6.580;2023-03-04T05:17:44;102158.47;;;5.23;95.64
60307;BME280;46155;52.364;6.580;2023-03-04T05:20:10;102153.28;;;5.23;95.28
60307;BME280;46155;52.364;6.580;2023-03-04T05:22:36;102165.81;;;5.18;96.81
60307;BME280;46155;52.364;6.580;2023-03-04T05:25:02;102160.47;;;5.16;97.06
60307;BME280;46155;52.364;6.580;2023-03-04T05:27:27;102159.38;;;5.14;97.08
60307;BME280;46155;52.364;6.580;2023-03-04T05:29:52;102170.06;;;5.09;98.43
60307;BME280;46155;52.364;6.580;2023-03-04T05:32:19;102157.03;;;5.09;98.02
60307;BME280;46155;52.364;6.580;2023-03-04T05:34:45;102163.66;;;5.14;98.07
60307;BME280;46155;52.364;6.580;2023-03-04T05:37:10;102160.91;;;5.12;98.13
60307;BME280;46155;52.364;6.580;2023-03-04T05:39:35;102161.66;;;5.11;98.19
60307;BME280;46155;52.364;6.580;2023-03-04T05:42:01;102163.03;;;5.08;99.17
60307;BME280;46155;52.364;6.580;2023-03-04T05:44:26;102156.44;;;5.11;98.80
60307;BME280;46155;52.364;6.580;2023-03-04T05:46:51;102165.50;;;5.15;99.58
60307;BME280;46155;52.364;6.580;2023-03-04T05:49:17;102163.81;;;5.15;99.84
60307;BME280;46155;52.364;6.580;2023-03-04T05:51:42;102156.88;;;5.07;100.00
60307;BME280;46155;52.364;6.580;2023-03-04T05:54:07;102153.84;;;5.11;100.00
60307;BME280;46155;52.364;6.580;2023-03-04T05:56:32;102152.59;;;4.99;100.00
60307;BME280;46155;52.364;6.580;2023-03-04T05:58:58;102147.38;;;4.99;100.00
60307;BME280;46155;52.364;6.580;2023-03-04T06:01:24;102156.56;;;5.04;100.00
60307;BME280;46155;52.364;6.580;2023-03-04T06:03:49;102169.25;;;5.01;100.00
60307;BME280;46155;52.364;6.580;2023-03-04T06:06:15;102165.59;;;4.99;100.00
60307;BME280;46155;52.364;6.580;2023-03-04T06:08:40;102161.91;;;4.97;100.00
60307;BME280;46155;52.364;6.580;2023-03-04T06:11:06;102148.84;;;4.88;100.00
60307;BME280;46155;52.364;6.580;2023-03-04T06:13:32;102155.28;;;4.92;100.00
60307;BME280;46155;52.364;6.580;2023-03-04T06:15:58;102161.47;;;5.01;100.00
60307;BME280;46155;52.364;6.580;2023-03-04T06:18:24;102166.78;;;4.94;100.00
60307;BME280;46155;52.364;6.580;2023-03-04T06:20:50;102153.13;;;4.88;100.00
60307;BME280;46155;52.364;6.580;2023-03-04T06:23:15;102166.47;;;4.91;100.00
60307;BME280;46155;52.364;6.580;2023-03-04T06:25:41;102169.06;;;4.91;100.00
60307;BME280;46155;52.364;6.580;2023-03-04T06:28:06;102168.13;;;4.90;100.00
60307;BME280;46155;52.364;6.580;2023-03-04T06:30:32;102160.16;;;4.89;100.00
60307;BME280;46155;52.364;6.580;2023-03-04T06:32:57;102163.19;;;4.85;100.00
60307;BME280;46155;52.364;6.580;2023-03-04T06:35:22;102158.34;;;4.88;100.00
60307;BME280;46155;52.364;6.580;2023-03-04T06:37:48;102167.53;;;4.93;100.00
60307;BME280;46155;52.364;6.580;2023-03-04T06:40:13;102172.00;;;4.94;100.00
60307;BME280;46155;52.364;6.580;2023-03-04T06:42:39;102161.75;;;4.95;100.00
60307;BME280;46155;52.364;6.580;2023-03-04T06:45:05;102174.59;;;4.94;100.00
60307;BME280;46155;52.364;6.580;2023-03-04T06:47:31;102169.25;;;5.01;100.00
60307;BME280;46155;52.364;6.580;2023-03-04T06:49:57;102178.63;;;4.99;100.00
60307;BME280;46155;52.364;6.580;2023-03-04T06:52:22;102178.63;;;4.99;100.00
60307;BME280;46155;52.364;6.580;2023-03-04T06:54:47;102182.72;;;4.97;100.00
60307;BME280;46155;52.364;6.580;2023-03-04T06:57:13;102180.97;;;5.13;100.00
60307;BME280;46155;52.364;6.580;2023-03-04T06:59:38;102186.56;;;5.00;100.00
60307;BME280;46155;52.364;6.580;2023-03-04T07:02:04;102192.41;;;5.07;100.00
60307;BME280;46155;52.364;6.580;2023-03-04T07:04:30;102185.94;;;5.03;100.00
60307;BME280;46155;52.364;6.580;2023-03-04T07:06:56;102188.41;;;5.02;100.00
60307;BME280;46155;52.364;6.580;2023-03-04T07:09:21;102179.47;;;4.91;100.00
60307;BME280;46155;52.364;6.580;2023-03-04T07:11:46;102173.06;;;4.96;100.00
60307;BME280;46155;52.364;6.580;2023-03-04T07:14:12;102182.91;;;5.07;100.00
60307;BME280;46155;52.364;6.580;2023-03-04T07:16:38;102176.88;;;5.24;100.00
60307;BME280;46155;52.364;6.580;2023-03-04T07:19:03;102181.28;;;5.16;100.00
60307;BME280;46155;52.364;6.580;2023-03-04T07:21:28;102186.94;;;5.12;100.00
60307;BME280;46155;52.364;6.580;2023-03-04T07:23:54;102179.56;;;5.08;100.00
60307;BME280;46155;52.364;6.580;2023-03-04T07:26:19;102181.13;;;5.15;100.00
60307;BME280;46155;52.364;6.580;2023-03-04T07:28:45;102186.94;;;5.12;100.00
60307;BME280;46155;52.364;6.580;2023-03-04T07:31:31;102181.13;;;5.15;100.00
60307;BME280;46155;52.364;6.580;2023-03-04T07:33:58;102185.19;;;5.29;100.00
60307;BME280;46155;52.364;6.580;2023-03-04T07:36:24;102189.16;;;5.34;100.00
60307;BME280;46155;52.364;6.580;2023-03-04T07:38:50;102192.75;;;5.43;100.00
60307;BME280;46155;52.364;6.580;2023-03-04T07:41:17;102188.13;;;5.41;100.00
60307;BME280;46155;52.364;6.580;2023-03-04T07:43:43;102187.69;;;5.45;100.00
60307;BME280;46155;52.364;6.580;2023-03-04T07:46:09;102195.03;;;5.40;100.00
60307;BME280;46155;52.364;6.580;2023-03-04T07:48:35;102188.75;;;5.47;100.00
60307;BME280;46155;52.364;6.580;2023-03-04T07:53:34;102192.59;;;5.50;100.00
60307;BME280;46155;52.364;6.580;2023-03-04T07:56:00;102185.38;;;5.39;100.00
60307;BME280;46155;52.364;6.580;2023-03-04T07:58:26;102192.47;;;5.58;100.00
60307;BME280;46155;52.364;6.580;2023-03-04T08:00:52;102185.72;;;5.60;100.00
60307;BME280;46155;52.364;6.580;2023-03-04T08:03:17;102185.25;;;5.55;100.00
60307;BME280;46155;52.364;6.580;2023-03-04T08:05:43;102191.72;;;5.59;100.00
60307;BME280;46155;52.364;6.580;2023-03-04T08:08:08;102193.53;;;5.60;100.00
60307;BME280;46155;52.364;6.580;2023-03-04T08:10:33;102193.88;;;5.63;100.00
60307;BME280;46155;52.364;6.580;2023-03-04T08:12:58;102195.22;;;5.50;100.00
60307;BME280;46155;52.364;6.580;2023-03-04T08:15:24;102192.00;;;5.53;100.00
60307;BME280;46155;52.364;6.580;2023-03-04T08:17:51;102194.63;;;5.62;100.00
60307;BME280;46155;52.364;6.580;2023-03-04T08:20:16;102197.69;;;5.66;100.00
60307;BME280;46155;52.364;6.580;2023-03-04T08:22:42;102190.03;;;5.59;100.00
60307;BME280;46155;52.364;6.580;2023-03-04T08:25:07;102188.84;;;5.73;100.00
60307;BME280;46155;52.364;6.580;2023-03-04T08:27:33;102191.78;;;5.94;100.00
60307;BME280;46155;52.364;6.580;2023-03-04T08:29:58;102191.22;;;6.05;100.00
60307;BME280;46155;52.364;6.580;2023-03-04T08:32:23;102191.53;;;6.08;100.00
60307;BME280;46155;52.364;6.580;2023-03-04T08:34:49;102194.44;;;6.29;100.00
60307;BME280;46155;52.364;6.580;2023-03-04T08:37:14;102194.94;;;6.42;100.00
60307;BME280;46155;52.364;6.580;2023-03-04T08:39:39;102196.91;;;6.36;100.00
60307;BME280;46155;52.364;6.580;2023-03-04T08:42:05;102194.63;;;6.48;100.00
60307;BME280;46155;52.364;6.580;2023-03-04T08:44:30;102194.31;;;6.53;100.00
60307;BME280;46155;52.364;6.580;2023-03-04T08:46:55;102184.78;;;6.54;100.00
60307;BME280;46155;52.364;6.580;2023-03-04T08:49:21;102198.13;;;6.48;100.00
60307;BME280;46155;52.364;6.580;2023-03-04T08:51:46;102198.91;;;6.47;100.00
60307;BME280;46155;52.364;6.580;2023-03-04T08:54:11;102198.31;;;6.32;100.00
60307;BME280;46155;52.364;6.580;2023-03-04T08:56:37;102208.09;;;6.35;100.00
60307;BME280;46155;52.364;6.580;2023-03-04T08:59:02;102201.66;;;6.31;100.00
60307;BME280;46155;52.364;6.580;2023-03-04T09:01:28;102193.06;;;6.24;100.00
60307;BME280;46155;52.364;6.580;2023-03-04T09:03:53;102204.88;;;6.29;100.00
60307;BME280;46155;52.364;6.580;2023-03-04T09:06:18;102203.53;;;6.32;100.00
60307;BME280;46155;52.364;6.580;2023-03-04T09:08:44;102199.81;;;6.22;100.00
60307;BME280;46155;52.364;6.580;2023-03-04T09:11:10;102185.72;;;6.19;100.00
60307;BME280;46155;52.364;6.580;2023-03-04T09:13:36;102197.53;;;6.25;100.00
60307;BME280;46155;52.364;6.580;2023-03-04T09:16:02;102194.59;;;6.22;100.00
60307;BME280;46155;52.364;6.580;2023-03-04T09:18:28;102187.38;;;6.10;100.00
60307;BME280;46155;52.364;6.580;2023-03-04T09:20:54;102202.72;;;6.16;100.00
60307;BME280;46155;52.364;6.580;2023-03-04T09:23:20;102193.38;;;6.09;100.00
60307;BME280;46155;52.364;6.580;2023-03-04T09:25:46;102189.38;;;6.04;100.00
60307;BME280;46155;52.364;6.580;2023-03-04T09:28:11;102198.88;;;6.12;100.00
60307;BME280;46155;52.364;6.580;2023-03-04T09:30:38;102172.00;;;5.96;100.00
60307;BME280;46155;52.364;6.580;2023-03-04T09:33:03;102198.72;;;6.02;100.00
60307;BME280;46155;52.364;6.580;2023-03-04T09:35:29;102198.88;;;6.12;100.00
60307;BME280;46155;52.364;6.580;2023-03-04T09:37:55;102195.06;;;6.17;100.00
60307;BME280;46155;52.364;6.580;2023-03-04T09:40:24;102186.34;;;6.08;100.00
60307;BME280;46155;52.364;6.580;2023-03-04T09:43:01;102186.34;;;6.08;100.00
60307;BME280;46155;52.364;6.580;2023-03-04T09:45:38;102190.44;;;6.15;100.00
60307;BME280;46155;52.364;6.580;2023-03-04T09:48:06;102194.25;;;6.01;100.00
60307;BME280;46155;52.364;6.580;2023-03-04T09:50:39;102195.50;;;6.13;100.00
60307;BME280;46155;52.364;6.580;2023-03-04T09:53:20;102189.53;;;6.14;100.00
60307;BME280;46155;52.364;6.580;2023-03-04T09:55:49;102193.69;;;6.30;100.00
60307;BME280;46155;52.364;6.580;2023-03-04T09:58:55;102189.25;;;6.11;100.00
60307;BME280;46155;52.364;6.580;2023-03-04T10:01:32;102199.06;;;6.23;100.00
60307;BME280;46155;52.364;6.580;2023-03-04T10:04:47;102186.03;;;6.14;100.00
60307;BME280;46155;52.364;6.580;2023-03-04T10:06:46;102189.69;;;6.07;100.00
60307;BME280;46155;52.364;6.580;2023-03-04T10:09:42;102189.84;;;6.17;100.00
60307;BME280;46155;52.364;6.580;2023-03-04T10:12:13;102190.16;;;6.20;100.00
60307;BME280;46155;52.364;6.580;2023-03-04T10:14:47;102178.66;;;6.36;100.00
60307;BME280;46155;52.364;6.580;2023-03-04T10:17:42;102188.03;;;6.34;100.00
60307;BME280;46155;52.364;6.580;2023-03-04T10:22:36;102177.38;;;6.67;100.00
60307;BME280;46155;52.364;6.580;2023-03-04T10:27:51;102176.41;;;6.84;100.00
60307;BME280;46155;52.364;6.580;2023-03-04T10:30:25;102180.31;;;6.62;100.00
60307;BME280;46155;52.364;6.580;2023-03-04T10:32:54;102182.56;;;6.76;100.00
60307;BME280;46155;52.364;6.580;2023-03-04T10:35:22;102173.09;;;6.68;100.00
60307;BME280;46155;52.364;6.580;2023-03-04T10:37:50;102172.63;;;6.72;100.00
60307;BME280;46155;52.364;6.580;2023-03-04T10:40:24;102177.09;;;6.55;100.00
60307;BME280;46155;52.364;6.580;2023-03-04T10:42:50;102183.38;;;6.58;100.00
60307;BME280;46155;52.364;6.580;2023-03-04T10:45:24;102186.28;;;6.78;100.00
60307;BME280;46155;52.364;6.580;2023-03-04T10:47:54;102186.16;;;6.50;100.00
60307;BME280;46155;52.364;6.580;2023-03-04T10:50:25;102185.97;;;6.75;100.00
60307;BME280;46155;52.364;6.580;2023-03-04T10:52:52;102181.34;;;6.81;100.00
60307;BME280;46155;52.364;6.580;2023-03-04T10:55:25;102177.34;;;6.76;100.00
60307;BME280;46155;52.364;6.580;2023-03-04T10:57:55;102175.19;;;6.89;100.00
60307;BME280;46155;52.364;6.580;2023-03-04T11:00:35;102165.22;;;7.31;100.00
60307;BME280;46155;52.364;6.580;2023-03-04T11:05:48;102171.81;;;6.91;100.00
60307;BME280;46155;52.364;6.580;2023-03-04T11:08:19;102172.47;;;6.79;100.00
60307;BME280;46155;52.364;6.580;2023-03-04T11:10:45;102168.16;;;6.80;100.00
60307;BME280;46155;52.364;6.580;2023-03-04T11:16:20;102170.97;;;6.55;100.00
60307;BME280;46155;52.364;6.580;2023-03-04T11:18:52;102171.13;;;6.57;100.00
60307;BME280;46155;52.364;6.580;2023-03-04T11:21:21;102173.13;;;6.59;100.00
60307;BME280;46155;52.364;6.580;2023-03-04T11:23:51;102170.81;;;6.53;100.00
60307;BME280;46155;52.364;6.580;2023-03-04T11:26:22;102167.09;;;6.69;100.00
60307;BME280;46155;52.364;6.580;2023-03-04T11:28:57;102170.03;;;6.72;100.00
60307;BME280;46155;52.364;6.580;2023-03-04T11:31:52;102163.34;;;7.02;99.71
60307;BME280;46155;52.364;6.580;2023-03-04T11:37:09;102164.94;;;7.28;97.59
60307;BME280;46155;52.364;6.580;2023-03-04T11:40:12;102160.03;;;7.22;96.81
60307;BME280;46155;52.364;6.580;2023-03-04T11:42:51;102156.09;;;7.08;95.33
60307;BME280;46155;52.364;6.580;2023-03-04T11:45:30;102159.69;;;7.28;94.80
60307;BME280;46155;52.364;6.580;2023-03-04T11:48:14;102137.88;;;6.91;95.51
60307;BME280;46155;52.364;6.580;2023-03-04T11:50:48;102154.59;;;6.93;95.22
60307;BME280;46155;52.364;6.580;2023-03-04T11:56:30;102149.72;;;6.78;97.52
60307;BME280;46155;52.364;6.580;2023-03-04T12:02:10;102149.63;;;6.68;98.87
60307;BME280;46155;52.364;6.580;2023-03-04T12:10:05;102132.09;;;6.67;97.98
60307;BME280;46155;52.364;6.580;2023-03-04T12:13:10;102130.88;;;6.72;98.35
60307;BME280;46155;52.364;6.580;2023-03-04T12:16:04;102117.19;;;6.75;97.28
60307;BME280;46155;52.364;6.580;2023-03-04T12:24:19;102119.06;;;7.40;91.59
60307;BME280;46155;52.364;6.580;2023-03-04T12:26:59;102120.59;;;7.38;91.94
60307;BME280;46155;52.364;6.580;2023-03-04T12:29:36;102115.03;;;7.44;93.68
60307;BME280;46155;52.364;6.580;2023-03-04T12:32:12;102121.50;;;7.47;92.99
60307;BME280;46155;52.364;6.580;2023-03-04T12:35:07;102119.94;;;7.49;93.16
60307;BME280;46155;52.364;6.580;2023-03-04T12:37:55;102120.03;;;7.32;93.46
60307;BME280;46155;52.364;6.580;2023-03-04T12:40:31;102110.84;;;7.27;94.68
60307;BME280;46155;52.364;6.580;2023-03-04T12:48:46;102103.91;;;7.55;92.39
60307;BME280;46155;52.364;6.580;2023-03-04T12:51:22;102113.38;;;7.82;86.97
60307;BME280;46155;52.364;6.580;2023-03-04T12:54:19;102110.16;;;7.85;85.06
60307;BME280;46155;52.364;6.580;2023-03-04T12:56:53;102102.16;;;7.83;82.83
60307;BME280;46155;52.364;6.580;2023-03-04T12:59:23;102101.50;;;7.67;83.69
60307;BME280;46155;52.364;6.580;2023-03-04T13:08:02;102100.47;;;7.37;87.92
60307;BME280;46155;52.364;6.580;2023-03-04T13:10:15;102094.91;;;7.43;88.48
60307;BME280;46155;52.364;6.580;2023-03-04T13:12:47;102086.28;;;7.24;89.88
60307;BME280;46155;52.364;6.580;2023-03-04T13:15:15;102093.78;;;7.30;90.23
60307;BME280;46155;52.364;6.580;2023-03-04T13:22:55;102076.09;;;7.28;91.35
60307;BME280;46155;52.364;6.580;2023-03-04T13:38:21;102065.03;;;8.06;81.88
60307;BME280;46155;52.364;6.580;2023-03-04T13:41:20;102056.50;;;7.99;80.94
60307;BME280;46155;52.364;6.580;2023-03-04T13:43:54;102054.56;;;7.77;82.56
60307;BME280;46155;52.364;6.580;2023-03-04T13:51:24;102047.66;;;8.07;78.68
60307;BME280;46155;52.364;6.580;2023-03-04T13:59:07;102036.94;;;7.85;79.24
60307;BME280;46155;52.364;6.580;2023-03-04T14:04:34;102053.63;;;7.96;76.50
60307;BME280;46155;52.364;6.580;2023-03-04T14:12:34;102044.81;;;7.66;79.06
60307;BME280;46155;52.364;6.580;2023-03-04T14:15:25;102045.50;;;7.54;79.96
60307;BME280;46155;52.364;6.580;2023-03-04T14:17:52;102029.88;;;7.65;79.32
60307;BME280;46155;52.364;6.580;2023-03-04T14:22:55;102030.22;;;7.78;77.56
60307;BME280;46155;52.364;6.580;2023-03-04T14:25:29;102046.00;;;7.50;80.60
60307;BME280;46155;52.364;6.580;2023-03-04T14:28:13;102039.13;;;7.23;80.14
60307;BME280;46155;52.364;6.580;2023-03-04T14:30:41;102039.34;;;7.35;79.59
60307;BME280;46155;52.364;6.580;2023-03-04T14:33:11;102037.78;;;7.37;80.65
60307;BME280;46155;52.364;6.580;2023-03-04T14:35:38;102037.22;;;7.31;81.08
60307;BME280;46155;52.364;6.580;2023-03-04T14:38:18;102037.00;;;7.38;80.61
60307;BME280;46155;52.364;6.580;2023-03-04T14:41:14;102029.50;;;7.32;79.86
60307;BME280;46155;52.364;6.580;2023-03-04T14:43:39;102025.13;;;7.22;80.93
60307;BME280;46155;52.364;6.580;2023-03-04T14:46:11;102035.41;;;7.21;82.39
60307;BME280;46155;52.364;6.580;2023-03-04T14:48:48;102029.22;;;7.01;85.27
60307;BME280;46155;52.364;6.580;2023-03-04T14:51:41;102025.72;;;7.01;86.22
60307;BME280;46155;52.364;6.580;2023-03-04T14:56:57;102030.56;;;6.79;89.39
60307;BME280;46155;52.364;6.580;2023-03-04T14:59:34;102030.16;;;6.74;89.99
60307;BME280;46155;52.364;6.580;2023-03-04T15:04:45;102021.94;;;6.61;90.34
60307;BME280;46155;52.364;6.580;2023-03-04T15:07:35;102024.22;;;6.58;89.15
60307;BME280;46155;52.364;6.580;2023-03-04T15:10:02;102029.13;;;6.54;87.05
60307;BME280;46155;52.364;6.580;2023-03-04T15:12:31;102031.94;;;6.47;86.53
60307;BME280;46155;52.364;6.580;2023-03-04T15:14:58;102018.19;;;6.31;86.45
60307;BME280;46155;52.364;6.580;2023-03-04T15:20:18;102019.13;;;6.68;84.23
60307;BME280;46155;52.364;6.580;2023-03-04T15:25:14;102023.41;;;6.67;83.56
60307;BME280;46155;52.364;6.580;2023-03-04T15:27:40;102016.81;;;6.71;84.05
60307;BME280;46155;52.364;6.580;2023-03-04T15:30:12;102012.81;;;6.66;82.58
60307;BME280;46155;52.364;6.580;2023-03-04T15:32:39;102015.88;;;6.70;82.15
60307;BME280;46155;52.364;6.580;2023-03-04T15:35:05;102014.47;;;6.74;81.48
60307;BME280;46155;52.364;6.580;2023-03-04T15:37:30;102014.81;;;6.68;79.68
60307;BME280;46155;52.364;6.580;2023-03-04T15:39:56;102011.53;;;6.80;78.44
60307;BME280;46155;52.364;6.580;2023-03-04T15:42:22;102009.03;;;6.62;77.38
60307;BME280;46155;52.364;6.580;2023-03-04T15:44:47;102006.84;;;6.67;78.77
60307;BME280;46155;52.364;6.580;2023-03-04T15:47:13;102001.44;;;6.74;78.54
60307;BME280;46155;52.364;6.580;2023-03-04T15:49:39;102002.31;;;6.83;77.65
60307;BME280;46155;52.364;6.580;2023-03-04T15:52:06;102017.00;;;6.92;77.44
60307;BME280;46155;52.364;6.580;2023-03-04T15:54:31;102006.88;;;6.95;76.73
60307;BME280;46155;52.364;6.580;2023-03-04T15:56:58;102007.34;;;6.91;76.55
60307;BME280;46155;52.364;6.580;2023-03-04T15:59:24;102010.59;;;6.88;76.60
60307;BME280;46155;52.364;6.580;2023-03-04T16:01:50;102010.28;;;6.85;76.64
60307;BME280;46155;52.364;6.580;2023-03-04T16:04:16;102015.81;;;6.88;76.35
60307;BME280;46155;52.364;6.580;2023-03-04T16:06:45;102011.19;;;6.85;78.07
60307;BME280;46155;52.364;6.580;2023-03-04T16:09:13;102004.41;;;6.87;77.29
60307;BME280;46155;52.364;6.580;2023-03-04T16:11:42;102015.66;;;6.86;77.20
60307;BME280;46155;52.364;6.580;2023-03-04T16:14:11;102012.13;;;6.86;77.04
60307;BME280;46155;52.364;6.580;2023-03-04T16:16:37;102010.28;;;6.85;77.38
60307;BME280;46155;52.364;6.580;2023-03-04T16:19:02;102007.53;;;6.83;77.94
60307;BME280;46155;52.364;6.580;2023-03-04T16:21:28;102009.47;;;6.95;76.66
60307;BME280;46155;52.364;6.580;2023-03-04T16:23:53;102015.53;;;6.85;76.66
60307;BME280;46155;52.364;6.580;2023-03-04T16:26:23;102012.44;;;6.80;76.78
60307;BME280;46155;52.364;6.580;2023-03-04T16:28:51;102008.16;;;6.81;76.88
60307;BME280;46155;52.364;6.580;2023-03-04T16:31:17;102000.22;;;6.70;78.28
60307;BME280;46155;52.364;6.580;2023-03-04T16:33:43;101998.25;;;6.68;79.41
60307;BME280;46155;52.364;6.580;2023-03-04T16:36:22;102003.91;;;6.72;80.20
60307;BME280;46155;52.364;6.580;2023-03-04T16:38:48;102010.16;;;6.75;80.13
60307;BME280;46155;52.364;6.580;2023-03-04T16:41:15;102005.94;;;6.66;80.69
60307;BME280;46155;52.364;6.580;2023-03-04T16:43:41;101999.69;;;6.55;81.51
60307;BME280;46155;52.364;6.580;2023-03-04T16:46:08;101998.97;;;6.48;81.58
60307;BME280;46155;52.364;6.580;2023-03-04T16:48:35;102002.94;;;6.44;82.04
60307;BME280;46155;52.364;6.580;2023-03-04T16:51:05;102003.41;;;6.40;82.41
60307;BME280;46155;52.364;6.580;2023-03-04T16:53:36;102009.88;;;6.35;82.77
60307;BME280;46155;52.364;6.580;2023-03-04T16:56:11;102011.72;;;6.36;83.75
60307;BME280;46155;52.364;6.580;2023-03-04T16:58:37;102012.97;;;6.31;84.46
60307;BME280;46155;52.364;6.580;2023-03-04T17:01:03;102008.69;;;6.23;84.67
60307;BME280;46155;52.364;6.580;2023-03-04T17:03:29;102009.63;;;6.14;85.29
60307;BME280;46155;52.364;6.580;2023-03-04T17:05:55;101997.06;;;6.10;86.14
60307;BME280;46155;52.364;6.580;2023-03-04T17:08:20;102012.53;;;6.17;85.78
60307;BME280;46155;52.364;6.580;2023-03-04T17:10:45;102008.06;;;6.16;86.10
60307;BME280;46155;52.364;6.580;2023-03-04T17:13:13;102007.19;;;6.07;85.84
60307;BME280;46155;52.364;6.580;2023-03-04T17:15:38;102009.81;;;5.98;86.68
60307;BME280;46155;52.364;6.580;2023-03-04T17:18:07;102023.44;;;5.96;87.34
60307;BME280;46155;52.364;6.580;2023-03-04T17:20:32;102015.03;;;5.98;86.41
60307;BME280;46155;52.364;6.580;2023-03-04T17:22:58;102011.63;;;5.91;86.29
60307;BME280;46155;52.364;6.580;2023-03-04T17:25:23;102008.59;;;5.77;86.73
60307;BME280;46155;52.364;6.580;2023-03-04T17:27:49;102013.31;;;5.73;85.96
60307;BME280;46155;52.364;6.580;2023-03-04T17:30:14;102015.00;;;5.72;86.45
60307;BME280;46155;52.364;6.580;2023-03-04T17:32:40;102008.75;;;5.70;86.78
60307;BME280;46155;52.364;6.580;2023-03-04T17:35:07;102009.34;;;5.76;87.09
60307;BME280;46155;52.364;6.580;2023-03-04T17:37:33;102013.50;;;5.74;86.67
60307;BME280;46155;52.364;6.580;2023-03-04T17:40:08;102013.94;;;5.79;86.00
60307;BME280;46155;52.364;6.580;2023-03-04T17:42:38;102020.06;;;5.79;85.48
60307;BME280;46155;52.364;6.580;2023-03-04T17:45:04;102017.94;;;5.58;85.93
60307;BME280;46155;52.364;6.580;2023-03-04T17:47:29;102015.47;;;5.59;85.91
60307;BME280;46155;52.364;6.580;2023-03-04T17:49:54;102019.63;;;5.66;85.65
60307;BME280;46155;52.364;6.580;2023-03-04T17:52:20;102020.38;;;5.65;86.24
60307;BME280;46155;52.364;6.580;2023-03-04T17:54:45;102021.13;;;5.64;86.91
60307;BME280;46155;52.364;6.580;2023-03-04T17:57:11;102022.22;;;5.66;86.68
60307;BME280;46155;52.364;6.580;2023-03-04T17:59:36;102016.72;;;5.72;86.73
60307;BME280;46155;52.364;6.580;2023-03-04T18:02:03;102021.31;;;5.74;86.37
60307;BME280;46155;52.364;6.580;2023-03-04T18:04:29;102020.66;;;5.77;86.40
60307;BME280;46155;52.364;6.580;2023-03-04T18:06:54;102019.47;;;5.73;86.87
60307;BME280;46155;52.364;6.580;2023-03-04T18:09:20;102030.19;;;5.76;87.09
60307;BME280;46155;52.364;6.580;2023-03-04T18:11:45;102031.41;;;5.71;86.20
60307;BME280;46155;52.364;6.580;2023-03-04T18:14:10;102021.28;;;5.57;87.44
60307;BME280;46155;52.364;6.580;2023-03-04T18:16:38;102033.25;;;5.63;87.79
60307;BME280;46155;52.364;6.580;2023-03-04T18:19:04;102040.16;;;5.63;87.28
60307;BME280;46155;52.364;6.580;2023-03-04T18:21:30;102038.78;;;5.66;86.91
60307;BME280;46155;52.364;6.580;2023-03-04T18:23:56;102028.66;;;5.61;87.68
60307;BME280;46155;52.364;6.580;2023-03-04T18:26:22;102034.47;;;5.67;87.27
60307;BME280;46155;52.364;6.580;2023-03-04T18:28:51;102036.00;;;5.65;87.58
60307;BME280;46155;52.364;6.580;2023-03-04T18:31:18;102037.22;;;5.60;88.55
60307;BME280;46155;52.364;6.580;2023-03-04T18:33:44;102028.66;;;5.61;88.00
60307;BME280;46155;52.364;6.580;2023-03-04T18:36:11;102039.97;;;5.61;88.00
60307;BME280;46155;52.364;6.580;2023-03-04T18:38:37;102035.84;;;5.55;87.90
60307;BME280;46155;52.364;6.580;2023-03-04T18:41:05;102034.16;;;5.38;87.73